Campo Bom, Brazil
Current Conditions -  °F | °C
As of 1:00 PM on Sunday 21 Dec 2014 (Local Time) from SBCO Reporting Station
Thunderstorm Thunderstorm  
Wind Chill: 73°   Ceiling: 3500
Heat Index: 73°   Visibility: 2.5mi
Dew Point: 73°   Wind: 1mph
Humidity: 100%   Direction: 190°S
Pressure: 29.56"   Gusts: NA
Location:  29.68°S, 51.05°W
Report Text: SBCO 211500Z 19001KT 4000 -TSRA BR BKN035 FEW040CB OVC070 23/23 Q1001
Loading
Personal Weather Stations






























Interactive Weather Map New forecast layout! Learn more

10-Day Weather Forecast

Advertisements
Track Severe Weather on mobile